createdAt,value
2024-02-05T00:06:25.642Z,18
2024-02-05T00:11:24.823Z,20
2024-02-05T00:16:24.860Z,19
2024-02-05T00:21:25.358Z,19
2024-02-05T00:26:25.377Z,19
2024-02-05T00:31:24.867Z,16
2024-02-05T00:36:25.254Z,16
2024-02-05T00:41:25.274Z,16
2024-02-05T00:46:25.379Z,18
2024-02-05T00:51:24.785Z,16
2024-02-05T00:56:25.293Z,18
2024-02-05T01:01:25.417Z,20
2024-02-05T01:06:25.533Z,16
2024-02-05T01:11:24.828Z,19
2024-02-05T01:16:25.368Z,18
2024-02-05T01:21:24.966Z,17
2024-02-05T01:41:25.684Z,17
2024-02-05T01:46:24.926Z,19
2024-02-05T01:51:25.399Z,18
2024-02-05T01:56:24.886Z,17
2024-02-05T02:01:25.439Z,17
2024-02-05T02:06:24.995Z,18
2024-02-05T02:11:25.535Z,19
2024-02-05T02:16:25.159Z,15
2024-02-05T02:21:25.467Z,19
2024-02-05T02:46:25.807Z,19
2024-02-05T02:51:25.593Z,15
2024-02-05T02:56:24.997Z,16
2024-02-05T03:01:25.576Z,15
2024-02-05T03:06:25.534Z,16
2024-02-05T03:21:25.877Z,16
2024-02-05T03:26:25.143Z,17
2024-02-05T03:31:25.624Z,17
2024-02-05T03:56:25.905Z,17
2024-02-05T04:01:25.231Z,19
2024-02-05T04:06:25.377Z,18
2024-02-05T04:11:25.651Z,18
2024-02-05T04:16:25.688Z,17
2024-02-05T04:21:25.174Z,18
2024-02-05T04:26:25.259Z,16
2024-02-05T04:31:25.795Z,18
2024-02-05T04:36:25.701Z,18
2024-02-05T04:56:26.076Z,18
2024-02-05T05:01:25.219Z,17
2024-02-05T05:06:25.473Z,20
2024-02-05T05:11:25.717Z,17
2024-02-05T05:16:25.779Z,16
2024-02-05T05:21:28.150Z,15
2024-02-05T05:26:25.334Z,16
2024-02-05T05:31:25.929Z,16
2024-02-05T05:36:25.896Z,16
2024-02-05T05:46:25.921Z,15
2024-02-05T05:51:25.815Z,16
2024-02-05T05:56:25.823Z,15
2024-02-05T06:01:25.889Z,16
2024-02-05T06:06:25.478Z,16
2024-02-05T06:11:25.947Z,18
2024-02-05T06:26:26.372Z,18
2024-02-05T06:31:25.514Z,27
2024-02-05T06:36:25.871Z,42
2024-02-05T06:46:25.941Z,28
2024-02-05T06:51:25.426Z,29
2024-02-05T07:06:26.308Z,29
2024-02-05T07:11:25.500Z,43
2024-02-05T07:26:26.078Z,29
2024-02-05T07:36:26.193Z,16
2024-02-05T07:41:26.026Z,16
2024-02-05T07:46:26.082Z,16
2024-02-05T07:51:25.554Z,19
2024-02-05T07:56:26.176Z,15
2024-02-05T08:01:25.634Z,15
2024-02-05T08:06:26.078Z,15
2024-02-05T08:11:25.556Z,18
2024-02-05T08:16:26.144Z,16
2024-02-05T08:21:26.064Z,14
2024-02-05T08:26:26.085Z,16
2024-02-05T08:31:26.186Z,18
2024-02-05T08:36:26.281Z,16
2024-02-05T08:56:26.468Z,16
2024-02-05T09:01:26.151Z,16
2024-02-05T09:06:26.182Z,18
2024-02-05T09:11:26.208Z,13
2024-02-05T09:16:26.282Z,17
2024-02-05T09:21:25.657Z,16
2024-02-05T09:26:26.196Z,15
2024-02-05T09:31:26.204Z,17
2024-02-05T09:36:25.693Z,14
2024-02-05T09:41:25.736Z,13
2024-02-05T09:46:25.897Z,14
2024-02-05T09:51:26.486Z,14
2024-02-05T09:56:25.757Z,15
2024-02-05T10:01:26.677Z,14
2024-02-05T10:06:25.826Z,14
2024-02-05T10:11:26.317Z,15
2024-02-05T10:16:25.822Z,15
2024-02-05T10:21:25.938Z,18
2024-02-05T10:46:26.809Z,18
2024-02-05T10:51:25.882Z,15
2024-02-05T10:56:26.102Z,14
2024-02-05T11:01:26.537Z,16
2024-02-05T11:06:25.928Z,17
2024-02-05T11:11:26.370Z,15
2024-02-05T11:16:25.920Z,13
2024-02-05T11:21:26.008Z,16
2024-02-05T11:26:25.914Z,14
2024-02-05T11:31:26.523Z,15
2024-02-05T11:36:26.883Z,15
2024-02-05T11:41:25.919Z,13
2024-02-05T11:46:26.474Z,13
2024-02-05T11:51:25.987Z,14
2024-02-05T11:56:26.789Z,14
2024-02-05T12:01:26.073Z,14
2024-02-05T12:06:25.960Z,12
2024-02-05T12:11:26.544Z,14
2024-02-05T12:16:26.500Z,12
2024-02-05T12:21:25.993Z,12
2024-02-05T12:26:26.532Z,13
2024-02-05T12:31:26.145Z,13
2024-02-05T12:36:26.533Z,13
2024-02-05T12:41:26.397Z,13
2024-02-05T12:46:26.599Z,14
2024-02-05T13:11:27.144Z,14
2024-02-05T13:16:26.163Z,13
2024-02-05T13:21:26.615Z,14
2024-02-05T13:26:26.155Z,14
2024-02-05T13:31:27.380Z,13
2024-02-05T13:36:26.886Z,11
2024-02-05T13:41:26.756Z,13
2024-02-05T13:46:26.726Z,14
2024-02-05T13:51:26.286Z,16
2024-02-05T14:11:27.153Z,16
2024-02-05T14:16:26.478Z,10
2024-02-05T14:21:26.850Z,12
2024-02-05T14:26:26.417Z,13
2024-02-05T14:31:26.793Z,12
2024-02-05T14:36:26.762Z,12
2024-02-05T14:41:26.775Z,10
2024-02-05T14:46:26.830Z,11
2024-02-05T14:51:26.302Z,14
2024-02-05T14:56:26.260Z,12
2024-02-05T15:01:27.097Z,12
2024-02-05T15:06:26.828Z,13
2024-02-05T15:11:26.326Z,11
2024-02-05T15:16:26.890Z,11
2024-02-05T15:21:26.879Z,12
2024-02-05T15:26:26.944Z,12
2024-02-05T15:31:27.002Z,12
2024-02-05T15:36:26.477Z,11
2024-02-05T15:41:26.852Z,11
2024-02-05T15:46:26.861Z,12
2024-02-05T15:51:26.911Z,12
2024-02-05T15:56:30.811Z,12
2024-02-05T16:16:28.566Z,12
2024-02-05T16:23:35.414Z,12
2024-02-05T16:26:26.473Z,11
2024-02-05T16:31:27.081Z,11
2024-02-05T16:44:12.995Z,15
2024-02-05T16:46:26.607Z,16
2024-02-05T16:51:26.515Z,15
2024-02-05T16:56:27.090Z,12
2024-02-05T17:01:26.565Z,14
2024-02-05T17:06:27.137Z,13
2024-02-05T17:11:27.056Z,14
2024-02-05T17:16:26.597Z,13
2024-02-05T17:21:26.557Z,15
2024-02-05T17:26:27.051Z,12
2024-02-05T17:31:27.141Z,14
2024-02-05T17:36:26.573Z,14
2024-02-05T17:51:27.492Z,14
2024-02-05T17:56:26.598Z,14
2024-02-05T18:01:27.236Z,15
2024-02-05T18:26:27.571Z,15
2024-02-05T18:31:27.380Z,15
2024-02-05T18:36:27.171Z,16
2024-02-05T18:41:27.199Z,12
2024-02-05T18:46:28.621Z,13
2024-02-05T18:51:27.347Z,13
2024-02-05T18:56:26.704Z,12
2024-02-05T19:01:26.787Z,14
2024-02-05T19:26:27.684Z,14
2024-02-05T19:31:26.821Z,12
2024-02-05T19:36:27.439Z,12
2024-02-05T19:41:26.810Z,13
2024-02-05T19:46:27.500Z,12
2024-02-05T19:51:27.322Z,13
2024-02-05T20:11:27.916Z,16
2024-02-05T20:16:26.846Z,16
2024-02-05T20:21:26.942Z,14
2024-02-05T20:26:27.450Z,13
2024-02-05T20:31:28.412Z,16
2024-02-05T20:36:27.626Z,12
2024-02-05T20:41:27.400Z,14
2024-02-05T20:46:26.995Z,17
2024-02-05T20:51:26.897Z,18
2024-02-05T20:56:27.584Z,18
2024-02-05T21:01:27.575Z,18
2024-02-05T21:06:27.432Z,18
2024-02-05T21:11:27.550Z,15
2024-02-05T21:16:26.927Z,15
2024-02-05T21:21:27.516Z,19
2024-02-05T21:26:27.467Z,14
2024-02-05T21:31:26.974Z,15
2024-02-05T21:36:27.009Z,17
2024-02-05T21:41:27.556Z,16
2024-02-05T21:46:27.095Z,17
2024-02-05T22:11:28.200Z,17
2024-02-05T22:16:27.210Z,14
2024-02-05T22:21:27.618Z,17
2024-02-05T22:31:27.772Z,15
2024-02-05T22:36:27.205Z,17
2024-02-05T22:41:27.218Z,14
2024-02-05T22:46:27.637Z,16
2024-02-05T22:51:27.850Z,14
2024-02-05T22:56:27.633Z,15
2024-02-05T23:01:27.872Z,15
2024-02-05T23:06:27.172Z,18
2024-02-05T23:11:27.659Z,20
2024-02-05T23:16:27.690Z,18
2024-02-05T23:21:27.197Z,17
2024-02-05T23:26:27.838Z,18
2024-02-05T23:31:27.745Z,16
2024-02-05T23:36:27.704Z,18
2024-02-05T23:41:27.767Z,18
2024-02-05T23:46:27.770Z,16
2024-02-05T23:51:27.809Z,17
2024-02-05T23:56:27.805Z,19
